Time,TemperatureF,DewpointF,PressureIn,WindDirection,WindDirectionDegrees,WindSpeedMPH,WindSpeedGustMPH,Humidity,HourlyPrecipIn,Conditions,Clouds,dailyrainin,SoftwareType,DateUTC
2013-10-02 00:14:00,60.0,58.0,30.09,WNW,295,0.0,0.0,92,0.00,,,0.00,,2013-10-02 04:14:00,
2013-10-02 00:24:00,59.0,57.0,30.09,WNW,295,0.0,0.0,93,0.00,,,0.00,,2013-10-02 04:24:00,
2013-10-02 00:54:00,59.0,57.0,30.09,WNW,295,0.0,0.0,94,0.00,,,0.00,,2013-10-02 04:54:00,
2013-10-02 01:23:00,60.0,58.0,30.09,WNW,295,0.0,0.0,93,0.00,,,0.00,,2013-10-02 05:23:00,
2013-10-02 01:53:00,60.0,58.0,30.09,WNW,295,0.0,0.0,93,0.00,,,0.00,,2013-10-02 05:53:00,
2013-10-02 02:22:00,59.0,57.0,30.10,WNW,295,0.0,0.0,94,0.00,,,0.00,,2013-10-02 06:22:00,
2013-10-02 02:52:00,58.0,57.0,30.10,WNW,295,0.0,0.0,95,0.00,,,0.00,,2013-10-02 06:52:00,
2013-10-02 03:22:00,58.0,57.0,30.10,WNW,295,0.0,0.0,95,0.00,,,0.00,,2013-10-02 07:22:00,
2013-10-02 03:52:00,57.0,56.0,30.10,WNW,295,0.0,0.0,95,0.00,,,0.00,,2013-10-02 07:52:00,
2013-10-02 04:22:00,57.0,56.0,30.10,WNW,295,0.0,0.0,95,0.00,,,0.00,,2013-10-02 08:22:00,
2013-10-02 04:52:00,58.0,57.0,30.10,WNW,295,0.0,0.0,96,0.00,,,0.00,,2013-10-02 08:52:00,
2013-10-02 05:21:00,58.0,57.0,30.11,WNW,295,0.0,0.0,96,0.00,,,0.00,,2013-10-02 09:21:00,
2013-10-02 05:54:00,58.0,57.0,30.11,WNW,295,0.0,0.0,96,0.00,,,0.00,,2013-10-02 09:54:00,
2013-10-02 06:23:00,59.0,58.0,30.11,WNW,295,0.0,1.0,96,0.00,,,0.00,,2013-10-02 10:23:00,
2013-10-02 06:53:00,58.0,57.0,30.11,WNW,295,0.0,0.0,95,0.00,,,0.00,,2013-10-02 10:53:00,
2013-10-02 07:22:00,57.0,56.0,30.12,WNW,295,0.0,0.0,96,0.00,,,0.00,,2013-10-02 11:22:00,
2013-10-02 07:52:00,57.0,56.0,30.13,WNW,295,0.0,0.0,96,0.00,,,0.00,,2013-10-02 11:52:00,
2013-10-02 08:12:00,58.0,57.0,30.13,WNW,295,0.0,0.0,96,0.00,,,0.00,,2013-10-02 12:12:00,
2013-10-02 08:22:00,59.0,58.0,30.13,WNW,295,0.0,0.0,96,0.00,,,0.00,,2013-10-02 12:22:00,
2013-10-02 08:52:00,60.0,59.0,30.14,SE,146,0.0,1.0,95,0.00,,,0.00,,2013-10-02 12:52:00,
2013-10-02 09:22:00,61.0,59.0,30.14,SSW,206,1.0,2.0,92,0.00,,,0.00,,2013-10-02 13:22:00,
2013-10-02 09:52:00,63.0,60.0,30.15,SSW,193,1.0,4.0,90,0.00,,,0.00,,2013-10-02 13:52:00,
2013-10-02 10:21:00,66.0,61.0,30.15,SE,125,0.0,5.0,85,0.00,,,0.00,,2013-10-02 14:21:00,
2013-10-02 10:52:00,67.0,62.0,30.15,SW,215,1.0,4.0,85,0.00,,,0.00,,2013-10-02 14:52:00,
2013-10-02 11:22:00,68.0,63.0,30.15,West,279,1.0,2.0,83,0.00,,,0.00,,2013-10-02 15:22:00,
2013-10-02 11:54:00,70.0,64.0,30.14,West,273,0.0,5.0,80,0.00,,,0.00,,2013-10-02 15:54:00,
2013-10-02 12:23:00,73.0,66.0,30.14,WNW,288,1.0,5.0,80,0.00,,,0.00,,2013-10-02 16:23:00,
2013-10-02 12:53:00,75.0,67.0,30.13,West,264,1.0,5.0,75,0.00,,,0.00,,2013-10-02 16:53:00,
2013-10-02 13:23:00,77.0,66.0,30.12,WNW,296,3.0,8.0,68,0.00,,,0.00,,2013-10-02 17:23:00,
2013-10-02 13:42:00,77.0,65.0,30.11,WSW,244,1.0,4.0,67,0.00,,,0.00,,2013-10-02 17:42:00,
2013-10-02 13:52:00,76.0,65.0,30.11,SE,125,2.0,6.0,69,0.00,,,0.00,,2013-10-02 17:52:00,
2013-10-02 14:12:00,78.0,66.0,30.11,WNW,294,4.0,6.0,66,0.00,,,0.00,,2013-10-02 18:12:00,
2013-10-02 14:22:00,78.0,65.0,30.11,West,269,2.0,9.0,65,0.00,,,0.00,,2013-10-02 18:22:00,
2013-10-02 14:52:00,78.0,65.0,30.09,SW,236,2.0,5.0,64,0.00,,,0.00,,2013-10-02 18:52:00,
2013-10-02 15:22:00,78.0,64.0,30.09,WNW,300,3.0,6.0,62,0.00,,,0.00,,2013-10-02 19:22:00,
2013-10-02 15:52:00,79.0,64.0,30.08,SSE,153,3.0,6.0,61,0.00,,,0.00,,2013-10-02 19:52:00,
2013-10-02 16:22:00,79.0,64.0,30.07,WNW,298,3.0,7.0,60,0.00,,,0.00,,2013-10-02 20:22:00,
2013-10-02 16:52:00,78.0,65.0,30.07,SW,219,1.0,4.0,64,0.00,,,0.00,,2013-10-02 20:52:00,
2013-10-02 17:22:00,78.0,65.0,30.07,SW,233,0.0,6.0,64,0.00,,,0.00,,2013-10-02 21:22:00,
2013-10-02 17:55:00,78.0,65.0,30.07,WSW,256,0.0,3.0,64,0.00,,,0.00,,2013-10-02 21:55:00,
2013-10-02 18:24:00,76.0,64.0,30.07,WNW,282,1.0,4.0,66,0.00,,,0.00,,2013-10-02 22:24:00,
2013-10-02 18:54:00,74.0,65.0,30.08,WNW,282,0.0,1.0,73,0.00,,,0.00,,2013-10-02 22:54:00,
2013-10-02 19:22:00,72.0,65.0,30.08,WNW,282,0.0,1.0,78,0.00,,,0.00,,2013-10-02 23:22:00,
2013-10-02 19:52:00,69.0,63.0,30.08,WNW,282,0.0,0.0,82,0.00,,,0.00,,2013-10-02 23:52:00,
2013-10-02 20:22:00,67.0,63.0,30.09,WNW,282,0.0,0.0,86,0.00,,,0.00,,2013-10-03 00:22:00,
2013-10-02 20:52:00,66.0,62.0,30.09,WNW,282,0.0,0.0,88,0.00,,,0.00,,2013-10-03 00:52:00,
2013-10-02 21:23:00,65.0,62.0,30.10,WNW,282,0.0,0.0,90,0.00,,,0.00,,2013-10-03 01:23:00,
2013-10-02 21:42:00,65.0,62.0,30.10,West,281,0.0,0.0,91,0.00,,,0.00,,2013-10-03 01:42:00,
2013-10-02 21:52:00,64.0,62.0,30.10,West,281,0.0,0.0,92,0.00,,,0.00,,2013-10-03 01:52:00,
2013-10-02 22:22:00,64.0,62.0,30.10,West,281,0.0,0.0,93,0.00,,,0.00,,2013-10-03 02:22:00,
2013-10-02 23:22:00,63.0,61.0,30.11,West,281,0.0,0.0,94,0.00,,,0.00,,2013-10-03 03:22:00,
2013-10-02 23:44:00,62.0,61.0,30.11,West,281,0.0,0.0,95,0.00,,,0.00,,2013-10-03 03:44:00,
2013-10-02 23:54:00,62.0,61.0,30.11,West,280,0.0,0.0,95,0.00,,,0.00,,2013-10-03 03:54:00,